createdAt,value
2023-04-11T00:00:20.552Z,13.90
2023-04-11T00:02:47.293Z,13.90
2023-04-11T00:05:14.040Z,14.00
2023-04-11T00:07:40.585Z,14.00
2023-04-11T00:10:08.119Z,14.00
2023-04-11T00:12:34.692Z,13.90
2023-04-11T00:15:01.265Z,13.90
2023-04-11T00:17:31.333Z,13.90
2023-04-11T00:20:01.579Z,13.90
2023-04-11T00:22:28.196Z,13.80
2023-04-11T00:24:55.088Z,13.70
2023-04-11T00:27:22.093Z,13.70
2023-04-11T00:29:48.688Z,13.70
2023-04-11T00:32:15.389Z,13.70
2023-04-11T00:34:42.247Z,13.70
2023-04-11T00:37:08.847Z,13.60
2023-04-11T00:39:35.411Z,13.60
2023-04-11T00:42:08.518Z,13.60
2023-04-11T00:44:36.275Z,13.60
2023-04-11T00:47:06.366Z,13.60
2023-04-11T00:49:33.557Z,13.60
2023-04-11T00:52:00.699Z,13.60
2023-04-11T00:54:30.000Z,13.50
2023-04-11T00:57:01.764Z,13.50
2023-04-11T00:59:30.130Z,13.50
2023-04-11T01:01:58.234Z,13.60
2023-04-11T01:04:26.187Z,13.60
2023-04-11T01:06:56.852Z,13.80
2023-04-11T01:09:27.164Z,13.70
2023-04-11T01:11:54.442Z,13.70
2023-04-11T01:14:22.322Z,13.70
2023-04-11T01:16:50.702Z,13.70
2023-04-11T01:19:21.719Z,13.70
2023-04-11T01:21:50.136Z,13.70
2023-04-11T01:24:16.954Z,13.70
2023-04-11T01:26:43.773Z,13.80
2023-04-11T01:29:10.782Z,13.70
2023-04-11T01:31:37.602Z,13.60
2023-04-11T01:34:04.945Z,13.30
2023-04-11T01:36:32.230Z,12.80
2023-04-11T01:38:59.334Z,12.60
2023-04-11T01:41:26.686Z,12.60
2023-04-11T01:43:53.888Z,12.60
2023-04-11T01:46:22.508Z,12.50
2023-04-11T01:48:55.572Z,12.50
2023-04-11T01:51:22.253Z,12.50
2023-04-11T01:53:48.831Z,12.50
2023-04-11T01:56:15.514Z,12.50
2023-04-11T01:58:42.260Z,12.40
2023-04-11T02:01:08.908Z,12.30
2023-04-11T02:03:36.934Z,12.20
2023-04-11T02:06:04.059Z,12.00
2023-04-11T02:08:30.752Z,11.60
2023-04-11T04:30:58.074Z,8.80
2023-04-11T04:33:26.416Z,8.80
2023-04-11T04:35:59.900Z,8.80
2023-04-11T04:38:28.782Z,8.70
2023-04-11T04:40:55.364Z,8.70
2023-04-11T04:43:23.557Z,8.70
2023-04-11T04:45:50.654Z,8.70
2023-04-11T04:48:17.405Z,8.80
2023-04-11T04:50:45.517Z,8.70
2023-04-11T04:53:12.120Z,8.70
2023-04-11T04:55:38.670Z,8.70
2023-04-11T04:58:05.390Z,8.60
2023-04-11T05:03:00.967Z,8.50
2023-04-11T05:10:22.740Z,8.20
2023-04-11T06:56:04.789Z,8.80
2023-04-11T06:58:31.338Z,8.80
2023-04-11T07:00:58.136Z,8.90
2023-04-11T07:03:25.203Z,9.00
2023-04-11T07:05:52.156Z,9.10
2023-04-11T07:08:18.728Z,9.00
2023-04-11T07:10:45.401Z,9.00
2023-04-11T07:13:12.008Z,8.90
2023-04-11T07:15:38.612Z,8.90
2023-04-11T07:18:05.273Z,8.90
2023-04-11T07:20:34.963Z,8.90
2023-04-11T07:23:01.649Z,9.00
2023-04-11T07:25:30.527Z,9.10
2023-04-11T07:27:57.701Z,9.30
2023-04-11T07:30:24.324Z,9.50
2023-04-11T07:32:51.047Z,9.60
2023-04-11T07:35:17.799Z,9.70
2023-04-11T07:37:45.408Z,9.70
2023-04-11T07:40:15.407Z,9.80
2023-04-11T07:42:42.480Z,9.70
2023-04-11T07:45:09.380Z,9.80
2023-04-11T07:47:36.077Z,9.90
2023-04-11T07:50:03.717Z,9.80
2023-04-11T07:52:30.578Z,9.90
2023-04-11T07:54:57.253Z,9.90
2023-04-11T07:57:23.890Z,9.80
2023-04-11T07:59:50.679Z,9.90
2023-04-11T08:59:00.881Z,11.00
2023-04-11T09:01:32.644Z,11.00
2023-04-11T09:04:01.161Z,11.20
2023-04-11T09:06:30.725Z,11.10
2023-04-11T09:08:59.184Z,10.90
2023-04-11T09:11:26.396Z,11.10
2023-04-11T09:14:09.921Z,11.40
2023-04-11T09:16:37.324Z,11.60
2023-04-11T09:19:04.033Z,11.60
2023-04-11T09:21:31.254Z,11.90
2023-04-11T09:24:15.266Z,11.90
2023-04-11T09:26:41.874Z,11.60
2023-04-11T09:29:08.421Z,11.60
2023-04-11T09:31:44.362Z,11.60
2023-04-11T09:34:12.285Z,11.30
2023-04-11T09:44:38.155Z,11.60
2023-04-11T09:47:04.945Z,11.80
2023-04-11T09:56:58.972Z,12.50
2023-04-11T10:04:22.710Z,12.70
2023-04-11T10:07:04.089Z,12.50
2023-04-11T10:09:32.380Z,12.60
2023-04-11T10:11:59.278Z,12.50
2023-04-11T10:14:42.225Z,12.50
2023-04-11T10:17:18.566Z,12.40
2023-04-11T10:19:49.237Z,12.00
2023-04-11T10:30:48.396Z,12.10
2023-04-11T10:33:17.324Z,11.70
2023-04-11T10:36:05.289Z,11.60
2023-04-11T10:38:46.957Z,11.50
2023-04-11T10:41:22.750Z,11.60
2023-04-11T10:46:24.878Z,11.50
2023-04-11T10:49:03.262Z,11.70
2023-04-11T10:51:31.516Z,11.90
2023-04-11T10:54:00.076Z,11.80
2023-04-11T10:56:50.891Z,12.00
2023-04-11T10:59:34.137Z,12.00
2023-04-11T11:02:02.299Z,12.10
2023-04-11T11:04:37.211Z,12.00
2023-04-11T11:07:05.874Z,11.80
2023-04-11T11:09:33.370Z,11.70
2023-04-11T11:12:09.308Z,11.70
2023-04-11T11:14:36.703Z,11.60
2023-04-11T11:17:04.067Z,11.70
2023-04-11T11:19:31.743Z,11.80
2023-04-11T11:22:03.909Z,11.80
2023-04-11T11:24:31.220Z,12.10
2023-04-11T11:26:58.420Z,12.50
2023-04-11T11:29:38.009Z,12.90
2023-04-11T11:32:04.881Z,12.80
2023-04-11T11:34:33.612Z,12.50
2023-04-11T11:37:04.285Z,12.70
2023-04-11T11:39:32.316Z,12.90
2023-04-11T11:41:59.034Z,13.10
2023-04-11T11:44:26.520Z,13.50
2023-04-11T11:47:06.786Z,13.30
2023-04-11T11:49:50.768Z,13.50
2023-04-11T11:52:34.299Z,13.50
2023-04-11T11:55:03.137Z,13.50
2023-04-11T11:57:29.753Z,13.10
2023-04-11T11:59:57.624Z,12.90
2023-04-11T12:02:28.283Z,12.80
2023-04-11T12:05:04.129Z,12.90
2023-04-11T12:07:35.686Z,13.10
2023-04-11T12:15:11.514Z,13.10
2023-04-11T12:17:38.609Z,12.80
2023-04-11T12:20:06.953Z,12.80
2023-04-11T12:22:34.194Z,13.00
2023-04-11T12:25:08.526Z,13.00
2023-04-11T12:27:36.672Z,13.20
2023-04-11T12:30:04.291Z,13.40
2023-04-11T12:32:33.704Z,13.40
2023-04-11T12:35:00.834Z,13.40
2023-04-11T12:37:27.531Z,13.60
2023-04-11T12:39:54.343Z,13.50
2023-04-11T12:42:23.787Z,13.20
2023-04-11T12:44:53.322Z,13.00
2023-04-11T12:47:19.902Z,13.00
2023-04-11T12:49:46.475Z,13.00
2023-04-11T12:52:13.034Z,12.90
2023-04-11T12:54:39.708Z,13.00
2023-04-11T12:57:07.465Z,13.20
2023-04-11T12:59:34.068Z,13.00
2023-04-11T13:02:01.423Z,12.80
2023-04-11T13:04:28.194Z,12.80
2023-04-11T13:06:54.882Z,12.70
2023-04-11T13:09:21.841Z,12.60
2023-04-11T13:11:48.363Z,12.50
2023-04-11T13:14:14.888Z,12.70
2023-04-11T13:16:43.224Z,12.80
2023-04-11T13:19:09.848Z,13.10
2023-04-11T13:21:37.252Z,13.10
2023-04-11T13:24:03.806Z,13.10
2023-04-11T13:26:30.464Z,13.00
2023-04-11T13:28:57.810Z,12.80
2023-04-11T13:31:28.547Z,12.80
2023-04-11T13:33:58.180Z,13.00
2023-04-11T13:36:26.962Z,13.30
2023-04-11T13:38:57.512Z,13.60
2023-04-11T13:41:25.278Z,14.20
2023-04-11T13:43:52.550Z,14.80
2023-04-11T13:46:19.586Z,14.60
2023-04-11T13:48:46.226Z,14.10
2023-04-11T13:51:13.352Z,13.80
2023-04-11T13:53:39.903Z,13.80
2023-04-11T13:56:07.756Z,13.90
2023-04-11T13:58:35.066Z,13.80
2023-04-11T14:01:01.750Z,13.70
2023-04-11T14:03:30.093Z,13.70
2023-04-11T14:05:56.706Z,13.80
2023-04-11T14:08:23.255Z,13.70
2023-04-11T14:10:49.769Z,13.60
2023-04-11T14:13:16.490Z,13.70
2023-04-11T14:15:43.168Z,14.10
2023-04-11T14:18:09.783Z,14.40
2023-04-11T14:20:36.557Z,14.30
2023-04-11T14:23:03.186Z,13.90
2023-04-11T14:25:29.734Z,13.90
2023-04-11T14:27:56.368Z,13.70
2023-04-11T14:30:22.960Z,13.70
2023-04-11T14:32:49.538Z,13.90
2023-04-11T14:35:16.619Z,14.20
2023-04-11T14:37:44.695Z,14.40
2023-04-11T14:40:11.989Z,14.50
2023-04-11T14:42:39.443Z,13.90
2023-04-11T14:45:06.796Z,13.80
2023-04-11T14:47:33.388Z,13.70
2023-04-11T14:50:00.904Z,13.60
2023-04-11T14:52:27.528Z,13.50
2023-04-11T14:54:54.072Z,13.30
2023-04-11T14:57:22.830Z,13.20
2023-04-11T14:59:50.029Z,13.60
2023-04-11T15:02:16.743Z,13.80
2023-04-11T15:04:43.381Z,13.70
2023-04-11T15:07:09.980Z,14.00
2023-04-11T15:09:36.576Z,14.00
2023-04-11T15:12:03.201Z,13.90
2023-04-11T15:14:29.734Z,13.40
2023-04-11T15:16:56.727Z,13.30
2023-04-11T15:19:23.358Z,13.40
2023-04-11T15:21:49.902Z,13.60
2023-04-11T15:24:16.930Z,13.70
2023-04-11T15:26:47.124Z,13.80
2023-04-11T15:29:17.785Z,13.80
2023-04-11T15:31:44.430Z,13.70
2023-04-11T15:34:13.716Z,13.50
2023-04-11T15:36:41.963Z,13.60
2023-04-11T15:39:09.402Z,13.70
2023-04-11T15:41:36.325Z,13.90
2023-04-11T15:44:02.850Z,14.00
2023-04-11T15:46:29.967Z,13.80
2023-04-11T15:48:56.620Z,13.80
2023-04-11T15:51:23.212Z,13.80
2023-04-11T15:53:50.336Z,13.60
2023-04-11T15:56:18.942Z,13.50
2023-04-11T15:58:48.404Z,13.40
2023-04-11T16:01:22.851Z,13.50
2023-04-11T16:03:50.293Z,13.60
2023-04-11T16:06:18.520Z,13.60
2023-04-11T16:08:45.450Z,13.70
2023-04-11T16:11:12.116Z,13.50
2023-04-11T16:13:38.720Z,13.40
2023-04-11T16:16:08.875Z,13.20
2023-04-11T16:18:35.713Z,13.00
2023-04-11T16:21:02.291Z,12.90
2023-04-11T16:23:28.894Z,12.90
2023-04-11T16:25:55.570Z,13.00
2023-04-11T16:28:22.447Z,12.80
2023-04-11T16:30:48.962Z,12.80
2023-04-11T16:33:15.547Z,12.80
2023-04-11T16:35:42.105Z,12.70
2023-04-11T16:38:08.715Z,12.60
2023-04-11T16:40:35.392Z,12.70
2023-04-11T16:43:01.994Z,12.60
2023-04-11T16:45:28.595Z,12.50
2023-04-11T16:47:55.191Z,12.60
2023-04-11T16:50:21.939Z,12.60
2023-04-11T16:52:48.474Z,12.50
2023-04-11T16:55:15.396Z,12.50
2023-04-11T16:57:41.948Z,12.40
2023-04-11T17:00:19.739Z,12.40
2023-04-11T17:02:47.104Z,12.40
2023-04-11T17:05:13.956Z,12.30
2023-04-11T17:07:40.617Z,12.30
2023-04-11T17:10:08.199Z,12.10
2023-04-11T17:12:34.784Z,12.10
2023-04-11T17:15:01.511Z,12.10
2023-04-11T17:17:28.104Z,12.00
2023-04-11T17:19:54.690Z,11.90
2023-04-11T17:22:21.257Z,11.80
2023-04-11T17:24:47.856Z,11.80
2023-04-11T17:27:14.426Z,11.70
2023-04-11T17:29:41.306Z,11.60
2023-04-11T17:32:07.866Z,11.60
2023-04-11T17:34:34.365Z,11.20
2023-04-11T17:37:01.019Z,11.40
2023-04-11T17:39:27.855Z,11.30
2023-04-11T17:41:54.472Z,11.20
2023-04-11T17:44:21.112Z,11.20
2023-04-11T17:46:47.742Z,11.10
2023-04-11T17:49:14.868Z,11.00
2023-04-11T17:51:48.708Z,10.90
2023-04-11T17:54:15.950Z,10.80
2023-04-11T17:56:42.486Z,10.60
2023-04-11T17:59:09.052Z,10.60
2023-04-11T18:01:35.627Z,10.50
2023-04-11T18:04:02.711Z,10.40
2023-04-11T18:06:29.519Z,10.30
2023-04-11T18:08:56.167Z,10.10
2023-04-11T18:11:22.776Z,10.00
2023-04-11T18:13:50.251Z,9.80
2023-04-11T18:16:17.302Z,9.70
2023-04-11T18:18:43.994Z,9.60
2023-04-11T18:21:10.520Z,9.50
2023-04-11T18:23:38.727Z,9.40
2023-04-11T18:26:05.515Z,9.30
2023-04-11T18:28:32.070Z,9.20
2023-04-11T18:30:58.640Z,9.10
2023-04-11T18:33:25.869Z,9.10
2023-04-11T18:35:52.573Z,9.10
2023-04-11T18:38:19.166Z,9.10
2023-04-11T18:40:46.306Z,9.00
2023-04-11T18:43:13.043Z,8.90
2023-04-11T18:45:40.943Z,8.80
2023-04-11T18:48:08.343Z,8.80
2023-04-11T18:50:38.636Z,8.70
2023-04-11T18:53:08.556Z,8.70
2023-04-11T18:55:38.142Z,8.70
2023-04-11T18:58:08.078Z,8.80
2023-04-11T19:00:35.634Z,8.70
2023-04-11T19:03:02.468Z,8.60
2023-04-11T19:05:29.528Z,8.60
2023-04-11T19:07:56.258Z,8.60
2023-04-11T19:10:22.828Z,8.50
2023-04-11T19:12:49.371Z,8.50
2023-04-11T19:15:15.959Z,8.40
2023-04-11T19:17:42.666Z,8.40
2023-04-11T19:20:12.815Z,8.40
2023-04-11T19:22:40.730Z,8.30
2023-04-11T19:25:10.897Z,8.30
2023-04-11T19:27:40.133Z,8.20
2023-04-11T19:30:08.672Z,8.10
2023-04-11T19:32:38.441Z,8.30
2023-04-11T19:35:08.448Z,8.20
2023-04-11T19:37:36.141Z,8.20
2023-04-11T19:40:16.447Z,8.20
2023-04-11T19:42:44.837Z,8.20
2023-04-11T19:45:12.205Z,8.10
2023-04-11T19:47:40.607Z,8.10
2023-04-11T19:50:11.635Z,8.10
2023-04-11T19:52:38.795Z,8.10
2023-04-11T19:55:05.907Z,8.10
2023-04-11T19:57:32.543Z,8.10
2023-04-11T19:59:59.075Z,8.10
2023-04-11T20:02:26.408Z,8.10
2023-04-11T20:04:55.990Z,8.10
2023-04-11T20:07:23.041Z,8.10
2023-04-11T20:09:49.632Z,8.10
2023-04-11T20:12:16.133Z,8.00
2023-04-11T20:14:43.772Z,8.00
2023-04-11T20:17:10.494Z,8.00
2023-04-11T20:19:37.631Z,8.00
2023-04-11T20:22:04.486Z,8.10
2023-04-11T20:24:31.042Z,8.10
2023-04-11T20:26:57.710Z,8.00
2023-04-11T20:31:57.395Z,8.10
2023-04-11T20:34:23.945Z,8.10
2023-04-11T20:36:50.472Z,8.10
2023-04-11T20:39:16.985Z,8.20
2023-04-11T20:41:43.616Z,8.20
2023-04-11T20:44:10.481Z,8.20
2023-04-11T20:46:39.450Z,8.20
2023-04-11T20:49:06.753Z,8.20
2023-04-11T20:51:34.025Z,8.10
2023-04-11T20:54:00.593Z,8.20
2023-04-11T20:56:27.180Z,8.10
2023-04-11T20:58:53.701Z,8.10
2023-04-11T21:01:20.252Z,8.00
2023-04-11T21:03:47.046Z,8.10
2023-04-11T21:06:13.975Z,8.10
2023-04-11T21:08:40.820Z,8.20
2023-04-11T21:11:07.350Z,8.10
2023-04-11T21:13:33.935Z,8.10
2023-04-11T21:16:00.607Z,8.10
2023-04-11T21:18:27.240Z,8.10
2023-04-11T21:20:53.783Z,8.10
2023-04-11T21:23:20.560Z,8.10
2023-04-11T21:25:47.240Z,8.10
2023-04-11T21:28:14.132Z,8.10
2023-04-11T21:30:42.134Z,8.20
2023-04-11T21:33:10.240Z,8.20
2023-04-11T21:35:36.857Z,8.10
2023-04-11T21:38:03.565Z,8.10
2023-04-11T21:40:30.738Z,8.20
2023-04-11T21:42:57.429Z,8.10
2023-04-11T21:45:24.089Z,8.30
2023-04-11T21:47:51.145Z,8.20
2023-04-11T21:50:17.825Z,8.10
2023-04-11T21:52:46.151Z,8.10
2023-04-11T21:55:14.413Z,8.40
2023-04-11T21:57:41.150Z,8.20
2023-04-11T22:00:10.546Z,8.10
2023-04-11T22:02:37.617Z,8.20
2023-04-11T22:05:07.000Z,8.30
2023-04-11T22:07:38.418Z,8.20
2023-04-11T22:10:09.813Z,8.30
2023-04-11T22:12:37.372Z,8.20
2023-04-11T22:15:05.101Z,8.20
2023-04-11T22:17:32.213Z,8.20
2023-04-11T22:19:58.829Z,8.20
2023-04-11T22:22:30.076Z,8.10
2023-04-11T22:24:59.932Z,8.10
2023-04-11T22:27:27.160Z,8.20
2023-04-11T22:29:57.050Z,8.20
2023-04-11T22:32:23.938Z,8.20
2023-04-11T22:34:50.651Z,8.10
2023-04-11T22:37:17.295Z,8.20
2023-04-11T22:39:43.861Z,8.40
2023-04-11T22:42:11.500Z,8.40
2023-04-11T22:44:38.128Z,8.40
2023-04-11T22:47:11.021Z,8.50
2023-04-11T22:49:40.588Z,8.50
2023-04-11T22:52:14.269Z,8.50
2023-04-11T22:54:41.967Z,8.50
2023-04-11T22:57:08.535Z,8.40
2023-04-11T22:59:35.112Z,8.50
2023-04-11T23:02:01.699Z,8.40
2023-04-11T23:04:28.448Z,8.40
2023-04-11T23:06:55.030Z,8.40
2023-04-11T23:09:21.732Z,8.40
2023-04-11T23:11:48.766Z,8.30
2023-04-11T23:14:17.981Z,8.40
2023-04-11T23:16:45.096Z,8.30
2023-04-11T23:19:11.823Z,8.30
2023-04-11T23:21:38.388Z,8.30
2023-04-11T23:24:06.850Z,8.30
2023-04-11T23:26:33.609Z,8.20
2023-04-11T23:29:02.041Z,8.30
2023-04-11T23:31:28.803Z,8.00
2023-04-11T23:33:55.714Z,8.30
2023-04-11T23:36:22.745Z,8.30
2023-04-11T23:38:49.314Z,8.30
2023-04-11T23:41:15.870Z,8.30
2023-04-11T23:43:42.476Z,8.30
2023-04-11T23:46:09.067Z,8.40
2023-04-11T23:48:35.845Z,8.40
2023-04-11T23:51:02.427Z,8.40
2023-04-11T23:53:29.156Z,8.60
2023-04-11T23:55:55.837Z,8.70
